KSBM/SBM METAR and TAF weather

Enter ICAO airport designator
Station Type Date Time Source
KSBM METAR 2019/10/22 16:53 UTC NOAA

KSBM 221653Z AUTO 24013G24KT 10SM FEW021 BKN028 OVC037 08/04 A2940 RMK AO2 PK WND 25032/1619 SLP959 T00830044


Station Type Date Time Source
KSBM Decoded METAR 2019/10/22 16:53 UTC NOAA

SHEBOYGAN CO MEMORIAL AIRPORT , WI, United States (KSBM) 43-47N 87-51W 232M
Oct 22, 2019 - 12:53 PM EDT / 2019.10.22 1653 UTC
Wind: from the WSW (240 degrees) at 15 MPH (13 KT) gusting to 28 MPH (24 KT):0
Visibility: 10 mile(s):0
Sky conditions: overcast
Temperature: 46.9 F (8.3 C)
Dew Point: 39.9 F (4.4 C)
Relative Humidity: 76%
Pressure (altimeter): 29.4 in. Hg (995 hPa)
ob: KSBM 221653Z AUTO 24013G24KT 10SM FEW021 BKN028 OVC037 08/04 A2940 RMK AO2 PK WND 25032/1619 SLP959 T00830044
cycle: 17

Station Type Date Time Source
KSBM TAF UTC NOAA

Error!

Example: see airport list